»·PEaware :: LXJ223 KMAF-KPHX

LXJ223 :: KMAF-KPHX

FLIGHT INFORMATION

Flight Status: Arrived
Operator: Unknown
More flights by this operator :: More flights under this callsign
Pilot: Anonymous 5456 (5456)
Aircraft: BOMBARDIER BD-100 CHALLENGER 300
(CL30)
More flights by this aircraft type
Origin: KMAF Midland Intl
United States
Destination: KPHX Phoenix Sky Harbor Intl
United States
More flights between these airports :: More routes between these airports
Route: + INK V94 EWM V94 SSO SUNSS7
File this flight plan on PilotEdge
Remarks:
Altitude:
(Current/Filed)
34,000ft
Speed:
(Current/Filed)
450kts
Departed: 12-Feb-17 08:12 AM
Arrived: 12-Feb-17 09:43 AM
Distance/Time
Traveled:
504nm/1:31
Distance/Time
To Go:
Arrived

Flight Plot

Page will automatically refresh every two minutes.

Flight plan parsing failed; only flown route is shown


Map Options




Map Legend


Flown Route
Filed Route
Departure Airport
Arrival Airport
Navaid (VOR, NDB)
Fix

Horizontal Profiles

Position Reports

Time Latitude Longitude Heading Altitude Ground
Speed
12-Feb-17 08:04 31.943093 -102.209900 232 2878ft 0kts
12-Feb-17 08:05 31.943093 -102.209900 232 2878ft 0kts
12-Feb-17 08:06 31.943093 -102.209900 232 2878ft 0kts
12-Feb-17 08:07 31.943093 -102.209900 232 2878ft 0kts
12-Feb-17 08:08 31.943256 -102.209322 25 2878ft 13kts
12-Feb-17 08:09 31.945758 -102.210682 294 2878ft 15kts
12-Feb-17 08:10 31.947297 -102.214848 293 2878ft 0kts
12-Feb-17 08:11 31.948468 -102.214758 72 2878ft 14kts
12-Feb-17 08:12 31.937168 -102.180034 100 4648ft 197kts
12-Feb-17 08:13 31.892178 -102.140015 207 9627ft 287kts
12-Feb-17 08:14 31.865311 -102.212659 261 14480ft 259kts
12-Feb-17 08:15 31.884854 -102.292650 294 18559ft 273kts
12-Feb-17 08:16 31.912210 -102.376052 283 22855ft 285kts
12-Feb-17 08:17 31.920921 -102.478500 274 24996ft 328kts
12-Feb-17 08:18 31.918921 -102.588309 270 27368ft 344kts
12-Feb-17 08:19 31.913808 -102.688295 269 29204ft 356kts
12-Feb-17 08:20 31.906532 -102.806537 269 31157ft 368kts
12-Feb-17 08:21 31.898212 -102.927619 269 33064ft 379kts
12-Feb-17 08:22 31.889333 -103.052169 268 35058ft 388kts
12-Feb-17 08:23 31.879980 -103.180773 268 35339ft 396kts
12-Feb-17 08:24 31.870818 -103.311019 269 35338ft 403kts
12-Feb-17 08:25 31.862326 -103.442385 269 35336ft 402kts
12-Feb-17 08:26 31.853874 -103.572878 269 35334ft 402kts
12-Feb-17 08:27 31.845683 -103.703055 268 36102ft 405kts
12-Feb-17 08:28 31.837464 -103.833835 268 36385ft 397kts
12-Feb-17 08:29 31.828969 -103.962891 268 36425ft 398kts
12-Feb-17 08:30 31.819998 -104.092351 268 36423ft 398kts
12-Feb-17 08:31 31.811012 -104.221501 268 36421ft 397kts
12-Feb-17 08:32 31.801993 -104.350429 268 36419ft 397kts
12-Feb-17 08:33 31.792854 -104.479490 268 36210ft 398kts
12-Feb-17 08:34 31.783546 -104.609125 268 35984ft 398kts
12-Feb-17 08:35 31.774375 -104.738161 268 35997ft 399kts
12-Feb-17 08:36 31.764795 -104.867958 268 35995ft 399kts
12-Feb-17 08:37 31.755092 -104.997589 268 35993ft 399kts
12-Feb-17 08:38 31.756490 -105.126224 281 35993ft 395kts
12-Feb-17 08:39 31.777556 -105.252334 282 35989ft 395kts
12-Feb-17 08:40 31.799354 -105.378564 282 35986ft 395kts
12-Feb-17 08:41 31.821281 -105.505119 282 35984ft 395kts
12-Feb-17 08:42 31.843064 -105.631334 282 36002ft 394kts
12-Feb-17 08:43 31.864979 -105.756249 281 36189ft 395kts
12-Feb-17 08:44 31.886713 -105.882467 281 36209ft 386kts
12-Feb-17 08:45 31.907565 -106.005215 281 36209ft 384kts
12-Feb-17 08:46 31.928253 -106.127932 281 36206ft 384kts
12-Feb-17 08:47 31.948857 -106.250955 281 36245ft 383kts
12-Feb-17 08:48 31.976646 -106.371495 285 36255ft 384kts
12-Feb-17 08:49 32.006124 -106.492174 285 36238ft 384kts
12-Feb-17 08:50 32.035445 -106.611877 285 36198ft 383kts
12-Feb-17 08:51 32.065180 -106.731644 285 36240ft 384kts
12-Feb-17 08:52 32.094660 -106.851892 285 36237ft 383kts
12-Feb-17 08:53 32.123848 -106.971779 285 36240ft 383kts
12-Feb-17 08:54 32.152918 -107.092187 285 36237ft 383kts
12-Feb-17 08:55 32.181802 -107.212708 285 36235ft 383kts
12-Feb-17 08:56 32.210671 -107.333462 285 36232ft 383kts
12-Feb-17 08:57 32.239425 -107.454233 285 36206ft 383kts
12-Feb-17 08:58 32.268038 -107.575004 285 36200ft 382kts
12-Feb-17 08:59 32.275034 -107.698787 272 36217ft 384kts
12-Feb-17 09:00 32.276016 -107.824711 272 36215ft 383kts
12-Feb-17 09:01 32.276285 -107.950019 272 36212ft 383kts
12-Feb-17 09:02 32.276285 -108.075617 272 36210ft 383kts
12-Feb-17 09:03 32.276002 -108.201203 271 36207ft 383kts
12-Feb-17 09:04 32.275474 -108.326840 271 36205ft 383kts
12-Feb-17 09:05 32.274895 -108.452208 271 36203ft 383kts
12-Feb-17 09:06 32.274275 -108.577565 271 36200ft 382kts
12-Feb-17 09:07 32.273829 -108.702137 272 36216ft 383kts
12-Feb-17 09:08 32.273316 -108.833651 274 36193ft 413kts
12-Feb-17 09:09 32.272407 -108.967887 274 36132ft 409kts
12-Feb-17 09:10 32.271286 -109.101964 274 36131ft 409kts
12-Feb-17 09:11 32.270130 -109.235831 276 36126ft 407kts
12-Feb-17 09:12 32.294666 -109.363735 288 36127ft 400kts
12-Feb-17 09:13 32.324392 -109.488834 289 36127ft 398kts
12-Feb-17 09:14 32.354750 -109.614690 289 36122ft 399kts
12-Feb-17 09:15 32.385304 -109.739578 289 36134ft 399kts
12-Feb-17 09:16 32.415792 -109.865497 288 36132ft 399kts
12-Feb-17 09:17 32.445995 -109.991587 288 36130ft 399kts
12-Feb-17 09:18 32.476089 -110.118069 289 35447ft 402kts
12-Feb-17 09:19 32.506149 -110.245150 290 33444ft 405kts
12-Feb-17 09:20 32.536361 -110.373299 290 31426ft 405kts
12-Feb-17 09:21 32.566186 -110.500499 290 29417ft 402kts
12-Feb-17 09:22 32.595041 -110.625650 290 27355ft 388kts
12-Feb-17 09:23 32.622947 -110.745976 289 25493ft 377kts
12-Feb-17 09:24 32.650255 -110.863750 289 23597ft 367kts
12-Feb-17 09:25 32.679302 -110.977953 304 21649ft 355kts
12-Feb-17 09:26 32.742681 -111.065280 312 19747ft 348kts
12-Feb-17 09:27 32.806848 -111.149715 312 17818ft 342kts
12-Feb-17 09:28 32.870684 -111.232532 307 15891ft 344kts
12-Feb-17 09:29 32.935928 -111.317679 306 15090ft 351kts
12-Feb-17 09:30 33.001278 -111.402933 306 15089ft 352kts
12-Feb-17 09:31 33.066365 -111.489719 304 15008ft 350kts
12-Feb-17 09:32 33.124071 -111.571157 303 14746ft 316kts
12-Feb-17 09:33 33.181514 -111.652509 301 12678ft 319kts
12-Feb-17 09:34 33.264063 -111.690259 349 10709ft 338kts
12-Feb-17 09:35 33.355364 -111.702105 349 8704ft 322kts
12-Feb-17 09:36 33.437750 -111.712637 349 6688ft 283kts
12-Feb-17 09:37 33.470404 -111.762746 232 4715ft 216kts
12-Feb-17 09:38 33.433871 -111.813251 231 3766ft 169kts
12-Feb-17 09:39 33.429177 -111.861191 271 3435ft 138kts
12-Feb-17 09:40 33.428841 -111.903372 272 2761ft 124kts
12-Feb-17 09:41 33.428803 -111.944034 273 2116ft 123kts
12-Feb-17 09:42 33.428826 -111.983482 273 1471ft 117kts
12-Feb-17 09:43 33.428847 -112.015682 271 1141ft 35kts
12-Feb-17 09:44 33.428352 -112.021444 187 1141ft 7kts
12-Feb-17 09:45 33.425702 -112.021809 193 1141ft 12kts

Navigation Log

Ident Type
Flight plan parsing failed, navigation log unavailable